sensor_id;sensor_type;location;lat;lon;timestamp;P1;durP1;ratioP1;P2;durP2;ratioP2
29686;SDS011;16599;47.078;15.536;2022-10-16T00:01:15;112.97;;;55.78;;
29686;SDS011;16599;47.078;15.536;2022-10-16T00:03:43;170.60;;;58.75;;
29686;SDS011;16599;47.078;15.536;2022-10-16T00:06:11;152.48;;;56.72;;
29686;SDS011;16599;47.078;15.536;2022-10-16T00:08:38;232.45;;;60.75;;
29686;SDS011;16599;47.078;15.536;2022-10-16T00:11:07;271.83;;;65.25;;
29686;SDS011;16599;47.078;15.536;2022-10-16T00:13:37;163.68;;;64.55;;
29686;SDS011;16599;47.078;15.536;2022-10-16T00:16:06;144.77;;;64.38;;
29686;SDS011;16599;47.078;15.536;2022-10-16T00:18:34;138.55;;;62.80;;
29686;SDS011;16599;47.078;15.536;2022-10-16T00:21:03;141.70;;;60.63;;
29686;SDS011;16599;47.078;15.536;2022-10-16T00:23:35;150.05;;;60.58;;
29686;SDS011;16599;47.078;15.536;2022-10-16T00:26:04;141.27;;;62.47;;
29686;SDS011;16599;47.078;15.536;2022-10-16T00:28:33;148.07;;;63.42;;
29686;SDS011;16599;47.078;15.536;2022-10-16T00:31:05;146.25;;;65.72;;
29686;SDS011;16599;47.078;15.536;2022-10-16T00:33:34;144.38;;;63.10;;
29686;SDS011;16599;47.078;15.536;2022-10-16T00:36:02;143.07;;;62.85;;
29686;SDS011;16599;47.078;15.536;2022-10-16T00:38:30;125.28;;;60.92;;
29686;SDS011;16599;47.078;15.536;2022-10-16T00:40:57;149.95;;;63.67;;
29686;SDS011;16599;47.078;15.536;2022-10-16T00:46:16;157.73;;;62.25;;
29686;SDS011;16599;47.078;15.536;2022-10-16T00:48:52;155.40;;;66.78;;
29686;SDS011;16599;47.078;15.536;2022-10-16T00:51:22;148.98;;;66.35;;
29686;SDS011;16599;47.078;15.536;2022-10-16T00:53:53;151.98;;;64.55;;
29686;SDS011;16599;47.078;15.536;2022-10-16T00:56:21;148.48;;;64.63;;
29686;SDS011;16599;47.078;15.536;2022-10-16T00:58:48;153.40;;;64.18;;
29686;SDS011;16599;47.078;15.536;2022-10-16T01:01:15;149.68;;;63.78;;
29686;SDS011;16599;47.078;15.536;2022-10-16T01:03:42;142.43;;;61.60;;
29686;SDS011;16599;47.078;15.536;2022-10-16T01:14:14;134.57;;;63.25;;
29686;SDS011;16599;47.078;15.536;2022-10-16T01:16:58;129.95;;;61.60;;
29686;SDS011;16599;47.078;15.536;2022-10-16T01:22:43;128.32;;;59.75;;
29686;SDS011;16599;47.078;15.536;2022-10-16T01:25:17;113.35;;;54.95;;
29686;SDS011;16599;47.078;15.536;2022-10-16T01:28:05;124.47;;;56.92;;
29686;SDS011;16599;47.078;15.536;2022-10-16T01:30:38;121.68;;;57.13;;
29686;SDS011;16599;47.078;15.536;2022-10-16T01:33:19;125.32;;;59.20;;
29686;SDS011;16599;47.078;15.536;2022-10-16T01:35:52;122.30;;;56.88;;
29686;SDS011;16599;47.078;15.536;2022-10-16T01:38:25;116.20;;;55.45;;
29686;SDS011;16599;47.078;15.536;2022-10-16T01:41:01;114.63;;;55.95;;
29686;SDS011;16599;47.078;15.536;2022-10-16T01:43:35;110.85;;;54.88;;
29686;SDS011;16599;47.078;15.536;2022-10-16T01:46:11;116.00;;;54.25;;
29686;SDS011;16599;47.078;15.536;2022-10-16T01:48:40;111.60;;;53.80;;
29686;SDS011;16599;47.078;15.536;2022-10-16T01:51:11;117.22;;;53.72;;
29686;SDS011;16599;47.078;15.536;2022-10-16T01:53:41;123.82;;;56.08;;
29686;SDS011;16599;47.078;15.536;2022-10-16T01:56:12;119.68;;;54.75;;
29686;SDS011;16599;47.078;15.536;2022-10-16T01:58:42;114.13;;;56.88;;
29686;SDS011;16599;47.078;15.536;2022-10-16T02:03:41;112.68;;;50.05;;
29686;SDS011;16599;47.078;15.536;2022-10-16T02:06:11;120.65;;;55.70;;
29686;SDS011;16599;47.078;15.536;2022-10-16T02:08:38;117.82;;;55.88;;
29686;SDS011;16599;47.078;15.536;2022-10-16T02:11:06;114.10;;;52.28;;
29686;SDS011;16599;47.078;15.536;2022-10-16T02:13:35;123.82;;;54.33;;
29686;SDS011;16599;47.078;15.536;2022-10-16T02:16:06;129.27;;;57.47;;
29686;SDS011;16599;47.078;15.536;2022-10-16T02:18:33;116.93;;;54.92;;
29686;SDS011;16599;47.078;15.536;2022-10-16T02:23:48;112.20;;;54.05;;
29686;SDS011;16599;47.078;15.536;2022-10-16T02:26:26;129.15;;;56.97;;
29686;SDS011;16599;47.078;15.536;2022-10-16T02:28:59;140.30;;;60.05;;
29686;SDS011;16599;47.078;15.536;2022-10-16T02:31:32;136.68;;;59.63;;
29686;SDS011;16599;47.078;15.536;2022-10-16T02:34:04;139.43;;;60.05;;
29686;SDS011;16599;47.078;15.536;2022-10-16T02:36:32;122.95;;;55.97;;
29686;SDS011;16599;47.078;15.536;2022-10-16T02:39:01;132.27;;;57.10;;
29686;SDS011;16599;47.078;15.536;2022-10-16T02:41:30;120.57;;;55.83;;
29686;SDS011;16599;47.078;15.536;2022-10-16T02:43:58;133.80;;;59.50;;
29686;SDS011;16599;47.078;15.536;2022-10-16T02:46:24;147.32;;;59.40;;
29686;SDS011;16599;47.078;15.536;2022-10-16T02:48:51;120.93;;;55.90;;
29686;SDS011;16599;47.078;15.536;2022-10-16T02:51:18;115.47;;;55.60;;
29686;SDS011;16599;47.078;15.536;2022-10-16T02:53:45;124.95;;;57.28;;
29686;SDS011;16599;47.078;15.536;2022-10-16T02:56:12;116.45;;;54.28;;
29686;SDS011;16599;47.078;15.536;2022-10-16T02:58:38;112.95;;;54.03;;
29686;SDS011;16599;47.078;15.536;2022-10-16T03:01:05;124.28;;;56.05;;
29686;SDS011;16599;47.078;15.536;2022-10-16T03:03:32;114.53;;;55.03;;
29686;SDS011;16599;47.078;15.536;2022-10-16T03:05:59;117.75;;;55.42;;
29686;SDS011;16599;47.078;15.536;2022-10-16T03:08:26;120.70;;;54.95;;
29686;SDS011;16599;47.078;15.536;2022-10-16T03:10:53;126.88;;;55.60;;
29686;SDS011;16599;47.078;15.536;2022-10-16T03:13:19;111.10;;;54.00;;
29686;SDS011;16599;47.078;15.536;2022-10-16T03:15:46;108.47;;;52.03;;
29686;SDS011;16599;47.078;15.536;2022-10-16T03:18:13;114.13;;;52.90;;
29686;SDS011;16599;47.078;15.536;2022-10-16T03:20:42;105.50;;;49.67;;
29686;SDS011;16599;47.078;15.536;2022-10-16T03:23:09;109.78;;;50.95;;
29686;SDS011;16599;47.078;15.536;2022-10-16T03:25:36;113.72;;;51.65;;
29686;SDS011;16599;47.078;15.536;2022-10-16T03:28:03;105.45;;;50.90;;
29686;SDS011;16599;47.078;15.536;2022-10-16T03:30:30;111.70;;;52.08;;
29686;SDS011;16599;47.078;15.536;2022-10-16T03:32:57;111.70;;;49.25;;
29686;SDS011;16599;47.078;15.536;2022-10-16T03:35:24;108.80;;;49.08;;
29686;SDS011;16599;47.078;15.536;2022-10-16T03:37:51;107.57;;;51.65;;
29686;SDS011;16599;47.078;15.536;2022-10-16T03:40:18;108.47;;;49.88;;
29686;SDS011;16599;47.078;15.536;2022-10-16T03:42:45;112.28;;;52.00;;
29686;SDS011;16599;47.078;15.536;2022-10-16T03:45:12;117.63;;;53.88;;
29686;SDS011;16599;47.078;15.536;2022-10-16T03:47:39;113.68;;;50.70;;
29686;SDS011;16599;47.078;15.536;2022-10-16T03:50:06;107.05;;;52.42;;
29686;SDS011;16599;47.078;15.536;2022-10-16T03:52:34;104.45;;;53.15;;
29686;SDS011;16599;47.078;15.536;2022-10-16T03:55:00;130.73;;;59.33;;
29686;SDS011;16599;47.078;15.536;2022-10-16T03:57:27;105.13;;;53.80;;
29686;SDS011;16599;47.078;15.536;2022-10-16T03:59:55;102.70;;;50.42;;
29686;SDS011;16599;47.078;15.536;2022-10-16T04:02:21;117.97;;;51.50;;
29686;SDS011;16599;47.078;15.536;2022-10-16T04:04:48;107.18;;;53.20;;
29686;SDS011;16599;47.078;15.536;2022-10-16T04:07:15;117.35;;;56.53;;
29686;SDS011;16599;47.078;15.536;2022-10-16T04:09:42;109.38;;;53.70;;
29686;SDS011;16599;47.078;15.536;2022-10-16T04:12:09;109.57;;;53.72;;
29686;SDS011;16599;47.078;15.536;2022-10-16T04:14:36;116.55;;;53.58;;
29686;SDS011;16599;47.078;15.536;2022-10-16T04:17:03;115.00;;;52.67;;
29686;SDS011;16599;47.078;15.536;2022-10-16T04:19:29;113.47;;;53.63;;
29686;SDS011;16599;47.078;15.536;2022-10-16T04:21:56;114.53;;;54.17;;
29686;SDS011;16599;47.078;15.536;2022-10-16T04:24:23;110.80;;;52.40;;
29686;SDS011;16599;47.078;15.536;2022-10-16T04:26:50;110.32;;;52.85;;
29686;SDS011;16599;47.078;15.536;2022-10-16T04:29:17;105.00;;;51.97;;
29686;SDS011;16599;47.078;15.536;2022-10-16T04:31:44;113.97;;;50.00;;
29686;SDS011;16599;47.078;15.536;2022-10-16T04:34:10;110.25;;;50.97;;
29686;SDS011;16599;47.078;15.536;2022-10-16T04:36:37;103.90;;;49.55;;
29686;SDS011;16599;47.078;15.536;2022-10-16T04:39:04;121.60;;;53.45;;
29686;SDS011;16599;47.078;15.536;2022-10-16T04:41:31;113.47;;;53.85;;
29686;SDS011;16599;47.078;15.536;2022-10-16T04:43:58;107.00;;;51.47;;
29686;SDS011;16599;47.078;15.536;2022-10-16T04:46:24;101.15;;;52.03;;
29686;SDS011;16599;47.078;15.536;2022-10-16T04:48:51;99.00;;;49.75;;
29686;SDS011;16599;47.078;15.536;2022-10-16T04:51:18;94.88;;;49.90;;
29686;SDS011;16599;47.078;15.536;2022-10-16T04:53:45;103.93;;;49.13;;
29686;SDS011;16599;47.078;15.536;2022-10-16T04:56:11;99.57;;;50.15;;
29686;SDS011;16599;47.078;15.536;2022-10-16T04:58:38;108.40;;;51.25;;
29686;SDS011;16599;47.078;15.536;2022-10-16T05:01:05;101.50;;;49.58;;
29686;SDS011;16599;47.078;15.536;2022-10-16T05:03:32;99.22;;;48.15;;
29686;SDS011;16599;47.078;15.536;2022-10-16T05:05:59;101.45;;;48.72;;
29686;SDS011;16599;47.078;15.536;2022-10-16T05:08:25;98.80;;;48.10;;
29686;SDS011;16599;47.078;15.536;2022-10-16T05:10:52;98.40;;;47.88;;
29686;SDS011;16599;47.078;15.536;2022-10-16T05:13:19;113.82;;;50.85;;
29686;SDS011;16599;47.078;15.536;2022-10-16T05:15:46;106.70;;;48.90;;
29686;SDS011;16599;47.078;15.536;2022-10-16T05:18:14;91.50;;;44.75;;
29686;SDS011;16599;47.078;15.536;2022-10-16T05:20:42;109.05;;;50.28;;
29686;SDS011;16599;47.078;15.536;2022-10-16T05:23:09;101.63;;;47.97;;
29686;SDS011;16599;47.078;15.536;2022-10-16T05:25:38;110.55;;;50.58;;
29686;SDS011;16599;47.078;15.536;2022-10-16T05:28:05;105.65;;;49.40;;
29686;SDS011;16599;47.078;15.536;2022-10-16T05:30:31;109.20;;;50.95;;
29686;SDS011;16599;47.078;15.536;2022-10-16T05:32:58;114.80;;;54.33;;
29686;SDS011;16599;47.078;15.536;2022-10-16T05:35:25;121.15;;;56.10;;
29686;SDS011;16599;47.078;15.536;2022-10-16T05:37:52;119.28;;;55.03;;
29686;SDS011;16599;47.078;15.536;2022-10-16T05:40:19;109.72;;;52.08;;
29686;SDS011;16599;47.078;15.536;2022-10-16T05:42:46;114.70;;;52.58;;
29686;SDS011;16599;47.078;15.536;2022-10-16T05:45:13;103.03;;;49.15;;
29686;SDS011;16599;47.078;15.536;2022-10-16T05:47:39;121.13;;;50.88;;
29686;SDS011;16599;47.078;15.536;2022-10-16T05:50:06;102.40;;;49.05;;
29686;SDS011;16599;47.078;15.536;2022-10-16T05:52:33;97.80;;;47.03;;
29686;SDS011;16599;47.078;15.536;2022-10-16T05:55:00;94.63;;;47.38;;
29686;SDS011;16599;47.078;15.536;2022-10-16T05:57:27;112.10;;;49.85;;
29686;SDS011;16599;47.078;15.536;2022-10-16T05:59:55;100.72;;;48.47;;
29686;SDS011;16599;47.078;15.536;2022-10-16T06:02:21;101.68;;;48.95;;
29686;SDS011;16599;47.078;15.536;2022-10-16T06:04:48;105.70;;;49.63;;
29686;SDS011;16599;47.078;15.536;2022-10-16T06:07:17;106.28;;;47.92;;
29686;SDS011;16599;47.078;15.536;2022-10-16T06:09:44;103.35;;;48.65;;
29686;SDS011;16599;47.078;15.536;2022-10-16T06:12:13;101.35;;;51.17;;
29686;SDS011;16599;47.078;15.536;2022-10-16T06:14:40;109.53;;;50.47;;
29686;SDS011;16599;47.078;15.536;2022-10-16T06:17:07;109.97;;;49.67;;
29686;SDS011;16599;47.078;15.536;2022-10-16T06:19:34;99.10;;;47.60;;
29686;SDS011;16599;47.078;15.536;2022-10-16T06:22:01;91.53;;;45.90;;
29686;SDS011;16599;47.078;15.536;2022-10-16T06:24:28;96.68;;;46.90;;
29686;SDS011;16599;47.078;15.536;2022-10-16T06:26:55;99.90;;;46.92;;
29686;SDS011;16599;47.078;15.536;2022-10-16T06:29:22;94.07;;;46.17;;
29686;SDS011;16599;47.078;15.536;2022-10-16T06:31:49;105.28;;;50.30;;
29686;SDS011;16599;47.078;15.536;2022-10-16T06:34:16;103.15;;;48.45;;
29686;SDS011;16599;47.078;15.536;2022-10-16T06:36:42;100.63;;;51.17;;
29686;SDS011;16599;47.078;15.536;2022-10-16T06:39:09;97.65;;;48.88;;
29686;SDS011;16599;47.078;15.536;2022-10-16T06:41:36;95.65;;;49.30;;
29686;SDS011;16599;47.078;15.536;2022-10-16T06:44:07;102.88;;;47.80;;
29686;SDS011;16599;47.078;15.536;2022-10-16T06:46:34;91.05;;;46.95;;
29686;SDS011;16599;47.078;15.536;2022-10-16T06:49:01;91.30;;;46.08;;
29686;SDS011;16599;47.078;15.536;2022-10-16T06:51:28;93.43;;;46.58;;
29686;SDS011;16599;47.078;15.536;2022-10-16T06:53:55;88.68;;;47.08;;
29686;SDS011;16599;47.078;15.536;2022-10-16T06:56:30;87.65;;;47.03;;
29686;SDS011;16599;47.078;15.536;2022-10-16T06:58:58;91.63;;;46.65;;
29686;SDS011;16599;47.078;15.536;2022-10-16T07:01:25;94.50;;;47.50;;
29686;SDS011;16599;47.078;15.536;2022-10-16T07:03:54;89.32;;;46.22;;
29686;SDS011;16599;47.078;15.536;2022-10-16T07:06:22;91.75;;;45.90;;
29686;SDS011;16599;47.078;15.536;2022-10-16T07:08:50;112.13;;;52.42;;
29686;SDS011;16599;47.078;15.536;2022-10-16T07:11:19;99.55;;;48.92;;
29686;SDS011;16599;47.078;15.536;2022-10-16T07:13:48;108.15;;;50.58;;
29686;SDS011;16599;47.078;15.536;2022-10-16T07:16:27;104.10;;;52.08;;
29686;SDS011;16599;47.078;15.536;2022-10-16T07:19:13;112.22;;;53.33;;
29686;SDS011;16599;47.078;15.536;2022-10-16T07:21:41;114.03;;;53.63;;
29686;SDS011;16599;47.078;15.536;2022-10-16T07:24:13;121.10;;;55.78;;
29686;SDS011;16599;47.078;15.536;2022-10-16T07:26:42;106.78;;;52.63;;
29686;SDS011;16599;47.078;15.536;2022-10-16T07:29:17;106.47;;;52.67;;
29686;SDS011;16599;47.078;15.536;2022-10-16T07:31:46;116.22;;;53.35;;
29686;SDS011;16599;47.078;15.536;2022-10-16T07:34:14;115.13;;;55.28;;
29686;SDS011;16599;47.078;15.536;2022-10-16T07:36:42;119.05;;;58.20;;
29686;SDS011;16599;47.078;15.536;2022-10-16T07:39:09;111.47;;;54.83;;
29686;SDS011;16599;47.078;15.536;2022-10-16T07:41:35;107.68;;;52.53;;
29686;SDS011;16599;47.078;15.536;2022-10-16T07:44:03;105.43;;;51.63;;
29686;SDS011;16599;47.078;15.536;2022-10-16T07:46:30;106.72;;;52.22;;
29686;SDS011;16599;47.078;15.536;2022-10-16T07:48:59;112.93;;;54.30;;
29686;SDS011;16599;47.078;15.536;2022-10-16T07:51:26;112.05;;;54.20;;
29686;SDS011;16599;47.078;15.536;2022-10-16T07:53:53;113.50;;;56.22;;
29686;SDS011;16599;47.078;15.536;2022-10-16T07:56:20;111.15;;;55.70;;
29686;SDS011;16599;47.078;15.536;2022-10-16T07:58:48;124.57;;;55.53;;
29686;SDS011;16599;47.078;15.536;2022-10-16T08:01:16;122.28;;;58.83;;
29686;SDS011;16599;47.078;15.536;2022-10-16T08:03:45;125.70;;;58.97;;
29686;SDS011;16599;47.078;15.536;2022-10-16T08:06:17;111.55;;;57.50;;
29686;SDS011;16599;47.078;15.536;2022-10-16T08:08:50;123.22;;;60.20;;
29686;SDS011;16599;47.078;15.536;2022-10-16T08:11:17;115.72;;;60.45;;
29686;SDS011;16599;47.078;15.536;2022-10-16T08:13:44;113.13;;;56.58;;
29686;SDS011;16599;47.078;15.536;2022-10-16T08:18:55;106.50;;;55.80;;
29686;SDS011;16599;47.078;15.536;2022-10-16T08:57:00;76.32;;;41.33;;
29686;SDS011;16599;47.078;15.536;2022-10-16T08:59:39;65.78;;;40.47;;
29686;SDS011;16599;47.078;15.536;2022-10-16T09:13:23;60.50;;;36.35;;
29686;SDS011;16599;47.078;15.536;2022-10-16T09:15:56;52.72;;;32.90;;
29686;SDS011;16599;47.078;15.536;2022-10-16T09:18:34;54.47;;;34.88;;
29686;SDS011;16599;47.078;15.536;2022-10-16T09:21:11;53.60;;;34.15;;
29686;SDS011;16599;47.078;15.536;2022-10-16T09:23:51;57.95;;;34.35;;
29686;SDS011;16599;47.078;15.536;2022-10-16T09:26:18;51.63;;;33.03;;
29686;SDS011;16599;47.078;15.536;2022-10-16T09:28:51;50.85;;;31.13;;
29686;SDS011;16599;47.078;15.536;2022-10-16T09:33:48;51.05;;;32.70;;
29686;SDS011;16599;47.078;15.536;2022-10-16T09:36:20;44.75;;;29.67;;
29686;SDS011;16599;47.078;15.536;2022-10-16T09:39:03;46.22;;;30.90;;
29686;SDS011;16599;47.078;15.536;2022-10-16T09:41:38;47.25;;;29.90;;
29686;SDS011;16599;47.078;15.536;2022-10-16T09:44:41;44.30;;;29.63;;
29686;SDS011;16599;47.078;15.536;2022-10-16T09:47:16;46.15;;;29.92;;
29686;SDS011;16599;47.078;15.536;2022-10-16T09:50:03;47.42;;;29.40;;
29686;SDS011;16599;47.078;15.536;2022-10-16T09:52:32;45.88;;;30.27;;
29686;SDS011;16599;47.078;15.536;2022-10-16T09:55:14;45.35;;;30.65;;
29686;SDS011;16599;47.078;15.536;2022-10-16T09:57:50;47.17;;;30.02;;
29686;SDS011;16599;47.078;15.536;2022-10-16T10:08:34;44.83;;;27.23;;
29686;SDS011;16599;47.078;15.536;2022-10-16T10:27:16;39.10;;;27.33;;
29686;SDS011;16599;47.078;15.536;2022-10-16T10:29:51;40.15;;;27.00;;
29686;SDS011;16599;47.078;15.536;2022-10-16T10:44:03;37.42;;;26.13;;
29686;SDS011;16599;47.078;15.536;2022-10-16T10:46:51;38.53;;;26.75;;
29686;SDS011;16599;47.078;15.536;2022-10-16T10:52:48;43.05;;;26.38;;
29686;SDS011;16599;47.078;15.536;2022-10-16T10:55:45;40.65;;;27.27;;
29686;SDS011;16599;47.078;15.536;2022-10-16T11:01:09;40.72;;;26.95;;
29686;SDS011;16599;47.078;15.536;2022-10-16T11:03:46;37.47;;;24.92;;
29686;SDS011;16599;47.078;15.536;2022-10-16T11:06:40;45.15;;;26.00;;
29686;SDS011;16599;47.078;15.536;2022-10-16T11:09:23;38.03;;;25.70;;
29686;SDS011;16599;47.078;15.536;2022-10-16T11:11:55;37.03;;;25.13;;
29686;SDS011;16599;47.078;15.536;2022-10-16T11:14:58;36.10;;;24.00;;
29686;SDS011;16599;47.078;15.536;2022-10-16T11:20:18;32.53;;;22.77;;
29686;SDS011;16599;47.078;15.536;2022-10-16T11:23:20;32.85;;;22.75;;
29686;SDS011;16599;47.078;15.536;2022-10-16T11:28:27;33.88;;;22.67;;
29686;SDS011;16599;47.078;15.536;2022-10-16T11:31:08;33.55;;;20.70;;
29686;SDS011;16599;47.078;15.536;2022-10-16T11:33:51;36.92;;;19.75;;
29686;SDS011;16599;47.078;15.536;2022-10-16T11:39:21;27.08;;;19.58;;
29686;SDS011;16599;47.078;15.536;2022-10-16T12:09:03;27.60;;;19.33;;
29686;SDS011;16599;47.078;15.536;2022-10-16T12:11:32;27.33;;;19.05;;
29686;SDS011;16599;47.078;15.536;2022-10-16T12:35:20;25.30;;;19.20;;
29686;SDS011;16599;47.078;15.536;2022-10-16T12:37:52;28.30;;;19.25;;
29686;SDS011;16599;47.078;15.536;2022-10-16T12:42:52;26.05;;;20.55;;
29686;SDS011;16599;47.078;15.536;2022-10-16T12:45:32;27.00;;;19.13;;
29686;SDS011;16599;47.078;15.536;2022-10-16T12:48:01;26.98;;;19.02;;
29686;SDS011;16599;47.078;15.536;2022-10-16T12:50:35;26.88;;;18.88;;
29686;SDS011;16599;47.078;15.536;2022-10-16T12:56:08;32.03;;;20.30;;
29686;SDS011;16599;47.078;15.536;2022-10-16T13:10:10;26.90;;;18.38;;
29686;SDS011;16599;47.078;15.536;2022-10-16T13:18:44;28.05;;;19.75;;
29686;SDS011;16599;47.078;15.536;2022-10-16T13:27:02;29.60;;;19.98;;
29686;SDS011;16599;47.078;15.536;2022-10-16T13:29:54;25.08;;;20.33;;
29686;SDS011;16599;47.078;15.536;2022-10-16T13:32:34;28.88;;;21.15;;
29686;SDS011;16599;47.078;15.536;2022-10-16T13:35:01;32.63;;;20.30;;
29686;SDS011;16599;47.078;15.536;2022-10-16T13:37:30;35.83;;;20.45;;
29686;SDS011;16599;47.078;15.536;2022-10-16T13:42:46;27.80;;;20.00;;
29686;SDS011;16599;47.078;15.536;2022-10-16T13:45:20;27.30;;;19.63;;
29686;SDS011;16599;47.078;15.536;2022-10-16T13:47:49;30.85;;;20.10;;
29686;SDS011;16599;47.078;15.536;2022-10-16T13:50:17;28.13;;;19.85;;
29686;SDS011;16599;47.078;15.536;2022-10-16T13:52:44;26.88;;;18.80;;
29686;SDS011;16599;47.078;15.536;2022-10-16T13:55:12;27.02;;;20.15;;
29686;SDS011;16599;47.078;15.536;2022-10-16T13:57:44;27.15;;;20.30;;
29686;SDS011;16599;47.078;15.536;2022-10-16T14:00:20;32.90;;;22.65;;
29686;SDS011;16599;47.078;15.536;2022-10-16T14:02:50;31.02;;;20.92;;
29686;SDS011;16599;47.078;15.536;2022-10-16T14:05:27;36.28;;;22.73;;
29686;SDS011;16599;47.078;15.536;2022-10-16T14:07:54;35.10;;;24.40;;
29686;SDS011;16599;47.078;15.536;2022-10-16T14:10:24;28.85;;;22.83;;
29686;SDS011;16599;47.078;15.536;2022-10-16T14:12:54;35.47;;;25.13;;
29686;SDS011;16599;47.078;15.536;2022-10-16T14:15:30;37.45;;;23.17;;
29686;SDS011;16599;47.078;15.536;2022-10-16T14:17:59;37.17;;;23.92;;
29686;SDS011;16599;47.078;15.536;2022-10-16T14:20:27;38.75;;;24.50;;
29686;SDS011;16599;47.078;15.536;2022-10-16T14:23:39;38.78;;;25.50;;
29686;SDS011;16599;47.078;15.536;2022-10-16T14:28:36;41.47;;;24.30;;
29686;SDS011;16599;47.078;15.536;2022-10-16T14:33:45;35.88;;;23.67;;
29686;SDS011;16599;47.078;15.536;2022-10-16T14:36:13;43.85;;;25.50;;
29686;SDS011;16599;47.078;15.536;2022-10-16T14:39:27;41.58;;;24.45;;
29686;SDS011;16599;47.078;15.536;2022-10-16T14:41:49;39.50;;;24.80;;
29686;SDS011;16599;47.078;15.536;2022-10-16T14:44:17;37.42;;;25.75;;
29686;SDS011;16599;47.078;15.536;2022-10-16T14:46:45;37.13;;;25.88;;
29686;SDS011;16599;47.078;15.536;2022-10-16T14:49:15;38.83;;;25.85;;
29686;SDS011;16599;47.078;15.536;2022-10-16T14:51:46;34.58;;;25.83;;
29686;SDS011;16599;47.078;15.536;2022-10-16T14:54:15;43.92;;;25.88;;
29686;SDS011;16599;47.078;15.536;2022-10-16T14:56:47;40.33;;;26.58;;
29686;SDS011;16599;47.078;15.536;2022-10-16T14:59:18;47.03;;;26.00;;
29686;SDS011;16599;47.078;15.536;2022-10-16T15:01:51;36.25;;;25.27;;
29686;SDS011;16599;47.078;15.536;2022-10-16T15:04:18;37.75;;;25.80;;
29686;SDS011;16599;47.078;15.536;2022-10-16T15:06:45;41.67;;;26.42;;
29686;SDS011;16599;47.078;15.536;2022-10-16T15:09:12;39.90;;;26.70;;
29686;SDS011;16599;47.078;15.536;2022-10-16T15:11:39;65.82;;;57.83;;
29686;SDS011;16599;47.078;15.536;2022-10-16T15:14:09;48.85;;;27.08;;
29686;SDS011;16599;47.078;15.536;2022-10-16T15:16:38;45.33;;;27.10;;
29686;SDS011;16599;47.078;15.536;2022-10-16T15:19:05;46.20;;;28.30;;
29686;SDS011;16599;47.078;15.536;2022-10-16T15:21:33;37.38;;;26.98;;
29686;SDS011;16599;47.078;15.536;2022-10-16T15:24:00;46.53;;;27.85;;
29686;SDS011;16599;47.078;15.536;2022-10-16T15:26:27;43.88;;;28.02;;
29686;SDS011;16599;47.078;15.536;2022-10-16T15:28:56;46.22;;;28.50;;
29686;SDS011;16599;47.078;15.536;2022-10-16T15:31:23;39.63;;;27.95;;
29686;SDS011;16599;47.078;15.536;2022-10-16T15:33:51;44.53;;;28.55;;
29686;SDS011;16599;47.078;15.536;2022-10-16T15:36:26;48.15;;;30.33;;
29686;SDS011;16599;47.078;15.536;2022-10-16T15:38:57;44.25;;;28.73;;
29686;SDS011;16599;47.078;15.536;2022-10-16T15:41:24;55.70;;;30.45;;
29686;SDS011;16599;47.078;15.536;2022-10-16T15:43:51;47.55;;;30.48;;
29686;SDS011;16599;47.078;15.536;2022-10-16T15:46:19;48.92;;;31.30;;
29686;SDS011;16599;47.078;15.536;2022-10-16T15:48:48;53.60;;;31.75;;
29686;SDS011;16599;47.078;15.536;2022-10-16T15:51:16;43.63;;;31.38;;
29686;SDS011;16599;47.078;15.536;2022-10-16T15:58:55;50.90;;;32.67;;
29686;SDS011;16599;47.078;15.536;2022-10-16T16:01:23;51.95;;;33.42;;
29686;SDS011;16599;47.078;15.536;2022-10-16T16:03:53;57.67;;;32.25;;
29686;SDS011;16599;47.078;15.536;2022-10-16T16:06:21;49.43;;;32.50;;
29686;SDS011;16599;47.078;15.536;2022-10-16T16:08:50;56.72;;;33.33;;
29686;SDS011;16599;47.078;15.536;2022-10-16T16:11:18;52.55;;;32.92;;
29686;SDS011;16599;47.078;15.536;2022-10-16T16:13:46;62.50;;;34.22;;
29686;SDS011;16599;47.078;15.536;2022-10-16T16:16:14;57.28;;;34.67;;
29686;SDS011;16599;47.078;15.536;2022-10-16T16:18:43;53.17;;;32.45;;
29686;SDS011;16599;47.078;15.536;2022-10-16T16:21:10;51.35;;;32.20;;
29686;SDS011;16599;47.078;15.536;2022-10-16T16:23:38;50.40;;;32.85;;
29686;SDS011;16599;47.078;15.536;2022-10-16T16:28:52;52.78;;;33.63;;
29686;SDS011;16599;47.078;15.536;2022-10-16T16:31:23;57.25;;;34.58;;
29686;SDS011;16599;47.078;15.536;2022-10-16T16:33:51;54.25;;;34.53;;
29686;SDS011;16599;47.078;15.536;2022-10-16T16:36:18;56.67;;;34.90;;
29686;SDS011;16599;47.078;15.536;2022-10-16T16:38:45;63.95;;;34.92;;
29686;SDS011;16599;47.078;15.536;2022-10-16T16:41:23;54.92;;;34.33;;
29686;SDS011;16599;47.078;15.536;2022-10-16T16:43:52;57.63;;;33.83;;
29686;SDS011;16599;47.078;15.536;2022-10-16T16:46:19;53.50;;;33.72;;
29686;SDS011;16599;47.078;15.536;2022-10-16T16:48:47;52.75;;;33.53;;
29686;SDS011;16599;47.078;15.536;2022-10-16T16:51:17;54.85;;;34.63;;
29686;SDS011;16599;47.078;15.536;2022-10-16T16:56:51;65.97;;;37.05;;
29686;SDS011;16599;47.078;15.536;2022-10-16T16:59:24;65.55;;;39.30;;
29686;SDS011;16599;47.078;15.536;2022-10-16T17:01:51;69.15;;;37.25;;
29686;SDS011;16599;47.078;15.536;2022-10-16T17:04:22;57.63;;;36.23;;
29686;SDS011;16599;47.078;15.536;2022-10-16T17:06:49;58.83;;;36.75;;
29686;SDS011;16599;47.078;15.536;2022-10-16T17:09:16;64.70;;;35.17;;
29686;SDS011;16599;47.078;15.536;2022-10-16T17:11:42;68.85;;;35.30;;
29686;SDS011;16599;47.078;15.536;2022-10-16T17:14:11;69.15;;;39.63;;
29686;SDS011;16599;47.078;15.536;2022-10-16T17:16:38;65.13;;;40.30;;
29686;SDS011;16599;47.078;15.536;2022-10-16T17:19:06;62.67;;;36.25;;
29686;SDS011;16599;47.078;15.536;2022-10-16T17:21:36;68.55;;;38.65;;
29686;SDS011;16599;47.078;15.536;2022-10-16T17:24:03;63.15;;;37.10;;
29686;SDS011;16599;47.078;15.536;2022-10-16T17:26:31;60.85;;;37.13;;
29686;SDS011;16599;47.078;15.536;2022-10-16T17:28:59;64.93;;;38.35;;
29686;SDS011;16599;47.078;15.536;2022-10-16T17:31:28;74.43;;;39.83;;
29686;SDS011;16599;47.078;15.536;2022-10-16T17:33:59;62.65;;;38.95;;
29686;SDS011;16599;47.078;15.536;2022-10-16T17:36:27;67.03;;;38.70;;
29686;SDS011;16599;47.078;15.536;2022-10-16T17:38:58;70.53;;;39.85;;
29686;SDS011;16599;47.078;15.536;2022-10-16T17:41:29;60.58;;;35.80;;
29686;SDS011;16599;47.078;15.536;2022-10-16T17:43:57;64.95;;;36.13;;
29686;SDS011;16599;47.078;15.536;2022-10-16T17:46:24;68.47;;;39.75;;
29686;SDS011;16599;47.078;15.536;2022-10-16T17:48:52;76.18;;;43.95;;
29686;SDS011;16599;47.078;15.536;2022-10-16T17:51:21;67.53;;;39.38;;
29686;SDS011;16599;47.078;15.536;2022-10-16T17:53:49;63.45;;;38.70;;
29686;SDS011;16599;47.078;15.536;2022-10-16T17:56:22;71.78;;;39.42;;
29686;SDS011;16599;47.078;15.536;2022-10-16T17:58:50;68.32;;;37.10;;